sensor_id;sensor_type;location;lat;lon;timestamp;P1;durP1;ratioP1;P2;durP2;ratioP2
8435;SDS011;4255;48.730;9.156;2023-01-16T00:02:00;5.53;;;2.20;;
8435;SDS011;4255;48.730;9.156;2023-01-16T00:04:27;6.93;;;2.38;;
8435;SDS011;4255;48.730;9.156;2023-01-16T00:06:53;3.08;;;2.10;;
8435;SDS011;4255;48.730;9.156;2023-01-16T00:09:19;2.75;;;2.00;;
8435;SDS011;4255;48.730;9.156;2023-01-16T00:11:45;3.53;;;2.70;;
8435;SDS011;4255;48.730;9.156;2023-01-16T00:14:11;4.57;;;2.42;;
8435;SDS011;4255;48.730;9.156;2023-01-16T00:16:37;2.30;;;1.93;;
8435;SDS011;4255;48.730;9.156;2023-01-16T00:19:03;2.37;;;2.20;;
8435;SDS011;4255;48.730;9.156;2023-01-16T00:21:28;3.10;;;2.50;;
8435;SDS011;4255;48.730;9.156;2023-01-16T00:23:54;2.77;;;2.57;;
8435;SDS011;4255;48.730;9.156;2023-01-16T00:26:22;2.53;;;2.30;;
8435;SDS011;4255;48.730;9.156;2023-01-16T00:28:48;3.40;;;2.10;;
8435;SDS011;4255;48.730;9.156;2023-01-16T00:31:14;2.70;;;2.50;;
8435;SDS011;4255;48.730;9.156;2023-01-16T00:33:39;2.40;;;2.17;;
8435;SDS011;4255;48.730;9.156;2023-01-16T00:36:05;2.77;;;2.47;;
8435;SDS011;4255;48.730;9.156;2023-01-16T00:38:31;2.15;;;2.03;;
8435;SDS011;4255;48.730;9.156;2023-01-16T00:40:57;2.00;;;1.90;;
8435;SDS011;4255;48.730;9.156;2023-01-16T00:43:23;1.97;;;1.87;;
8435;SDS011;4255;48.730;9.156;2023-01-16T00:45:49;3.10;;;2.80;;
8435;SDS011;4255;48.730;9.156;2023-01-16T00:48:14;4.30;;;2.33;;
8435;SDS011;4255;48.730;9.156;2023-01-16T00:50:40;2.90;;;2.70;;
8435;SDS011;4255;48.730;9.156;2023-01-16T00:53:06;2.00;;;1.90;;
8435;SDS011;4255;48.730;9.156;2023-01-16T00:55:32;5.93;;;2.43;;
8435;SDS011;4255;48.730;9.156;2023-01-16T00:57:59;3.47;;;2.25;;
8435;SDS011;4255;48.730;9.156;2023-01-16T01:00:24;2.27;;;2.17;;
8435;SDS011;4255;48.730;9.156;2023-01-16T01:02:50;2.83;;;2.67;;
8435;SDS011;4255;48.730;9.156;2023-01-16T01:05:16;2.37;;;2.17;;
8435;SDS011;4255;48.730;9.156;2023-01-16T01:07:42;2.13;;;2.00;;
8435;SDS011;4255;48.730;9.156;2023-01-16T01:10:08;3.60;;;1.93;;
8435;SDS011;4255;48.730;9.156;2023-01-16T01:12:34;2.08;;;1.88;;
8435;SDS011;4255;48.730;9.156;2023-01-16T01:15:00;2.30;;;2.20;;
8435;SDS011;4255;48.730;9.156;2023-01-16T01:17:26;3.53;;;1.80;;
8435;SDS011;4255;48.730;9.156;2023-01-16T01:19:51;4.07;;;2.27;;
8435;SDS011;4255;48.730;9.156;2023-01-16T01:22:17;2.40;;;2.30;;
8435;SDS011;4255;48.730;9.156;2023-01-16T01:24:46;3.43;;;3.27;;
8435;SDS011;4255;48.730;9.156;2023-01-16T01:27:12;3.10;;;2.80;;
8435;SDS011;4255;48.730;9.156;2023-01-16T01:29:38;7.00;;;3.30;;
8435;SDS011;4255;48.730;9.156;2023-01-16T01:32:04;7.97;;;2.97;;
8435;SDS011;4255;48.730;9.156;2023-01-16T01:34:30;4.75;;;3.78;;
8435;SDS011;4255;48.730;9.156;2023-01-16T01:36:59;3.30;;;2.35;;
8435;SDS011;4255;48.730;9.156;2023-01-16T01:39:29;3.80;;;3.45;;
8435;SDS011;4255;48.730;9.156;2023-01-16T01:41:55;4.43;;;2.37;;
8435;SDS011;4255;48.730;9.156;2023-01-16T01:44:51;5.18;;;2.40;;
8435;SDS011;4255;48.730;9.156;2023-01-16T01:47:17;2.55;;;2.35;;
8435;SDS011;4255;48.730;9.156;2023-01-16T01:49:52;2.45;;;2.25;;
8435;SDS011;4255;48.730;9.156;2023-01-16T01:52:21;2.85;;;2.65;;
8435;SDS011;4255;48.730;9.156;2023-01-16T01:54:50;2.15;;;2.05;;
8435;SDS011;4255;48.730;9.156;2023-01-16T01:57:23;2.85;;;2.65;;
8435;SDS011;4255;48.730;9.156;2023-01-16T01:59:59;2.85;;;2.47;;
8435;SDS011;4255;48.730;9.156;2023-01-16T02:02:30;2.60;;;2.40;;
8435;SDS011;4255;48.730;9.156;2023-01-16T02:05:00;4.32;;;2.70;;
8435;SDS011;4255;48.730;9.156;2023-01-16T02:07:29;2.50;;;2.40;;
8435;SDS011;4255;48.730;9.156;2023-01-16T02:09:56;4.63;;;2.70;;
8435;SDS011;4255;48.730;9.156;2023-01-16T02:12:39;5.00;;;2.58;;
8435;SDS011;4255;48.730;9.156;2023-01-16T02:15:05;3.00;;;2.70;;
8435;SDS011;4255;48.730;9.156;2023-01-16T02:17:30;3.63;;;2.35;;
8435;SDS011;4255;48.730;9.156;2023-01-16T02:20:19;5.85;;;2.45;;
8435;SDS011;4255;48.730;9.156;2023-01-16T02:25:37;2.63;;;2.42;;
8435;SDS011;4255;48.730;9.156;2023-01-16T02:45:23;7.55;;;2.35;;
8435;SDS011;4255;48.730;9.156;2023-01-16T02:51:06;3.25;;;2.50;;
8435;SDS011;4255;48.730;9.156;2023-01-16T02:53:48;4.95;;;2.22;;
8435;SDS011;4255;48.730;9.156;2023-01-16T02:56:19;2.10;;;2.00;;
8435;SDS011;4255;48.730;9.156;2023-01-16T02:58:52;3.30;;;2.40;;
8435;SDS011;4255;48.730;9.156;2023-01-16T03:01:18;3.03;;;2.83;;
8435;SDS011;4255;48.730;9.156;2023-01-16T03:04:03;3.93;;;2.63;;
8435;SDS011;4255;48.730;9.156;2023-01-16T03:09:21;3.60;;;2.60;;
8435;SDS011;4255;48.730;9.156;2023-01-16T03:11:55;4.55;;;2.67;;
8435;SDS011;4255;48.730;9.156;2023-01-16T03:15:20;5.25;;;2.65;;
8435;SDS011;4255;48.730;9.156;2023-01-16T03:23:09;3.95;;;2.58;;
8435;SDS011;4255;48.730;9.156;2023-01-16T03:25:43;6.10;;;2.55;;
8435;SDS011;4255;48.730;9.156;2023-01-16T03:28:22;4.53;;;2.42;;
8435;SDS011;4255;48.730;9.156;2023-01-16T03:31:09;2.88;;;2.10;;
8435;SDS011;4255;48.730;9.156;2023-01-16T03:33:53;2.67;;;2.40;;
8435;SDS011;4255;48.730;9.156;2023-01-16T03:36:35;6.40;;;2.97;;
8435;SDS011;4255;48.730;9.156;2023-01-16T03:39:24;3.25;;;2.63;;
8435;SDS011;4255;48.730;9.156;2023-01-16T03:41:53;4.05;;;3.13;;
8435;SDS011;4255;48.730;9.156;2023-01-16T03:44:29;5.40;;;2.72;;
8435;SDS011;4255;48.730;9.156;2023-01-16T03:46:58;2.95;;;2.72;;
8435;SDS011;4255;48.730;9.156;2023-01-16T03:49:31;2.83;;;2.63;;
8435;SDS011;4255;48.730;9.156;2023-01-16T03:52:22;7.60;;;4.15;;
8435;SDS011;4255;48.730;9.156;2023-01-16T03:57:45;4.15;;;2.72;;
8435;SDS011;4255;48.730;9.156;2023-01-16T04:00:15;3.47;;;3.00;;
8435;SDS011;4255;48.730;9.156;2023-01-16T04:02:44;4.05;;;3.00;;
8435;SDS011;4255;48.730;9.156;2023-01-16T04:08:19;3.83;;;3.25;;
8435;SDS011;4255;48.730;9.156;2023-01-16T04:10:50;2.25;;;2.13;;
8435;SDS011;4255;48.730;9.156;2023-01-16T04:13:18;2.85;;;2.70;;
8435;SDS011;4255;48.730;9.156;2023-01-16T04:15:50;6.18;;;2.88;;
8435;SDS011;4255;48.730;9.156;2023-01-16T04:18:19;3.08;;;2.78;;
8435;SDS011;4255;48.730;9.156;2023-01-16T04:20:47;3.22;;;2.90;;
8435;SDS011;4255;48.730;9.156;2023-01-16T04:23:14;2.50;;;2.40;;
8435;SDS011;4255;48.730;9.156;2023-01-16T04:25:41;8.18;;;2.50;;
8435;SDS011;4255;48.730;9.156;2023-01-16T04:28:07;2.33;;;2.22;;
8435;SDS011;4255;48.730;9.156;2023-01-16T04:30:33;3.43;;;2.40;;
8435;SDS011;4255;48.730;9.156;2023-01-16T04:33:01;3.67;;;2.30;;
8435;SDS011;4255;48.730;9.156;2023-01-16T04:35:29;3.45;;;2.50;;
8435;SDS011;4255;48.730;9.156;2023-01-16T04:37:55;3.65;;;2.45;;
8435;SDS011;4255;48.730;9.156;2023-01-16T04:40:21;2.57;;;2.37;;
8435;SDS011;4255;48.730;9.156;2023-01-16T04:42:47;2.13;;;2.03;;
8435;SDS011;4255;48.730;9.156;2023-01-16T04:45:13;3.88;;;3.60;;
8435;SDS011;4255;48.730;9.156;2023-01-16T04:47:38;3.00;;;2.73;;
8435;SDS011;4255;48.730;9.156;2023-01-16T04:50:04;4.20;;;3.20;;
8435;SDS011;4255;48.730;9.156;2023-01-16T04:52:30;17.65;;;2.75;;
8435;SDS011;4255;48.730;9.156;2023-01-16T04:54:56;2.60;;;2.50;;
8435;SDS011;4255;48.730;9.156;2023-01-16T04:57:22;5.33;;;1.60;;
8435;SDS011;4255;48.730;9.156;2023-01-16T04:59:47;2.70;;;2.23;;
8435;SDS011;4255;48.730;9.156;2023-01-16T05:02:13;2.03;;;1.83;;
8435;SDS011;4255;48.730;9.156;2023-01-16T05:04:38;3.87;;;2.60;;
8435;SDS011;4255;48.730;9.156;2023-01-16T05:07:04;3.77;;;2.40;;
8435;SDS011;4255;48.730;9.156;2023-01-16T05:09:29;2.40;;;2.30;;
8435;SDS011;4255;48.730;9.156;2023-01-16T05:11:55;2.83;;;2.57;;
8435;SDS011;4255;48.730;9.156;2023-01-16T05:14:21;3.33;;;2.33;;
8435;SDS011;4255;48.730;9.156;2023-01-16T05:16:46;2.70;;;2.50;;
8435;SDS011;4255;48.730;9.156;2023-01-16T05:19:12;3.47;;;2.70;;
8435;SDS011;4255;48.730;9.156;2023-01-16T05:21:38;2.87;;;1.93;;
8435;SDS011;4255;48.730;9.156;2023-01-16T05:24:03;2.30;;;2.10;;
8435;SDS011;4255;48.730;9.156;2023-01-16T05:26:30;3.65;;;2.00;;
8435;SDS011;4255;48.730;9.156;2023-01-16T05:28:55;2.30;;;2.10;;
8435;SDS011;4255;48.730;9.156;2023-01-16T05:31:21;7.03;;;2.03;;
8435;SDS011;4255;48.730;9.156;2023-01-16T05:33:46;2.93;;;2.60;;
8435;SDS011;4255;48.730;9.156;2023-01-16T05:36:12;3.23;;;2.43;;
8435;SDS011;4255;48.730;9.156;2023-01-16T05:38:38;2.50;;;2.33;;
8435;SDS011;4255;48.730;9.156;2023-01-16T05:41:03;2.20;;;2.10;;
8435;SDS011;4255;48.730;9.156;2023-01-16T05:43:29;1.87;;;1.53;;
8435;SDS011;4255;48.730;9.156;2023-01-16T05:45:55;3.37;;;1.80;;
8435;SDS011;4255;48.730;9.156;2023-01-16T05:48:20;2.00;;;1.90;;
8435;SDS011;4255;48.730;9.156;2023-01-16T05:50:46;2.70;;;2.20;;
8435;SDS011;4255;48.730;9.156;2023-01-16T05:53:12;3.67;;;1.93;;
8435;SDS011;4255;48.730;9.156;2023-01-16T05:55:46;2.33;;;2.13;;
8435;SDS011;4255;48.730;9.156;2023-01-16T05:58:13;3.28;;;1.92;;
8435;SDS011;4255;48.730;9.156;2023-01-16T06:00:40;3.45;;;1.90;;
8435;SDS011;4255;48.730;9.156;2023-01-16T06:03:07;3.90;;;2.42;;
8435;SDS011;4255;48.730;9.156;2023-01-16T06:05:33;8.65;;;4.95;;
8435;SDS011;4255;48.730;9.156;2023-01-16T06:07:59;4.95;;;2.92;;
8435;SDS011;4255;48.730;9.156;2023-01-16T06:10:25;6.63;;;2.53;;
8435;SDS011;4255;48.730;9.156;2023-01-16T06:12:51;2.35;;;2.20;;
8435;SDS011;4255;48.730;9.156;2023-01-16T06:15:17;6.38;;;4.55;;
8435;SDS011;4255;48.730;9.156;2023-01-16T06:17:43;5.10;;;4.47;;
8435;SDS011;4255;48.730;9.156;2023-01-16T06:20:10;3.20;;;2.83;;
8435;SDS011;4255;48.730;9.156;2023-01-16T06:22:36;2.65;;;2.55;;
8435;SDS011;4255;48.730;9.156;2023-01-16T06:25:02;2.57;;;2.37;;
8435;SDS011;4255;48.730;9.156;2023-01-16T06:27:28;2.50;;;2.30;;
8435;SDS011;4255;48.730;9.156;2023-01-16T06:29:54;2.83;;;2.63;;
8435;SDS011;4255;48.730;9.156;2023-01-16T06:32:20;2.83;;;2.30;;
8435;SDS011;4255;48.730;9.156;2023-01-16T06:34:45;3.07;;;2.40;;
8435;SDS011;4255;48.730;9.156;2023-01-16T06:37:11;3.40;;;2.33;;
8435;SDS011;4255;48.730;9.156;2023-01-16T06:39:37;4.00;;;2.30;;
8435;SDS011;4255;48.730;9.156;2023-01-16T06:42:03;2.40;;;2.30;;
8435;SDS011;4255;48.730;9.156;2023-01-16T06:44:30;3.13;;;2.90;;
8435;SDS011;4255;48.730;9.156;2023-01-16T06:46:56;2.65;;;2.50;;
8435;SDS011;4255;48.730;9.156;2023-01-16T06:49:22;3.80;;;2.60;;
8435;SDS011;4255;48.730;9.156;2023-01-16T06:51:47;2.50;;;2.30;;
8435;SDS011;4255;48.730;9.156;2023-01-16T06:54:13;2.90;;;2.70;;
8435;SDS011;4255;48.730;9.156;2023-01-16T06:56:38;4.13;;;2.97;;
8435;SDS011;4255;48.730;9.156;2023-01-16T06:59:04;3.75;;;2.70;;
8435;SDS011;4255;48.730;9.156;2023-01-16T07:01:30;4.53;;;2.77;;
8435;SDS011;4255;48.730;9.156;2023-01-16T07:03:55;3.23;;;2.87;;
8435;SDS011;4255;48.730;9.156;2023-01-16T07:06:21;3.60;;;2.73;;
8435;SDS011;4255;48.730;9.156;2023-01-16T07:08:47;3.00;;;2.80;;
8435;SDS011;4255;48.730;9.156;2023-01-16T07:11:16;2.25;;;2.13;;
8435;SDS011;4255;48.730;9.156;2023-01-16T07:13:42;3.60;;;3.25;;
8435;SDS011;4255;48.730;9.156;2023-01-16T07:16:11;3.33;;;2.97;;
8435;SDS011;4255;48.730;9.156;2023-01-16T07:18:58;5.30;;;3.40;;
8435;SDS011;4255;48.730;9.156;2023-01-16T07:21:42;5.80;;;3.83;;
8435;SDS011;4255;48.730;9.156;2023-01-16T07:24:31;7.30;;;3.05;;
8435;SDS011;4255;48.730;9.156;2023-01-16T07:27:01;3.50;;;2.80;;
8435;SDS011;4255;48.730;9.156;2023-01-16T07:29:29;5.30;;;2.92;;
8435;SDS011;4255;48.730;9.156;2023-01-16T07:31:56;3.00;;;2.85;;
8435;SDS011;4255;48.730;9.156;2023-01-16T07:34:24;3.10;;;2.80;;
8435;SDS011;4255;48.730;9.156;2023-01-16T07:36:50;2.70;;;2.43;;
8435;SDS011;4255;48.730;9.156;2023-01-16T07:39:15;3.10;;;2.73;;
8435;SDS011;4255;48.730;9.156;2023-01-16T07:41:41;3.20;;;2.90;;
8435;SDS011;4255;48.730;9.156;2023-01-16T07:44:07;5.70;;;3.37;;
8435;SDS011;4255;48.730;9.156;2023-01-16T07:46:32;2.80;;;2.60;;
8435;SDS011;4255;48.730;9.156;2023-01-16T07:48:58;2.90;;;2.67;;
8435;SDS011;4255;48.730;9.156;2023-01-16T07:51:24;4.07;;;3.30;;
8435;SDS011;4255;48.730;9.156;2023-01-16T07:53:49;3.70;;;3.50;;
8435;SDS011;4255;48.730;9.156;2023-01-16T07:56:15;4.40;;;3.23;;
8435;SDS011;4255;48.730;9.156;2023-01-16T07:58:41;6.50;;;2.83;;
8435;SDS011;4255;48.730;9.156;2023-01-16T08:01:08;3.78;;;3.42;;
8435;SDS011;4255;48.730;9.156;2023-01-16T08:03:35;2.95;;;2.75;;
8435;SDS011;4255;48.730;9.156;2023-01-16T08:06:01;3.25;;;2.95;;
8435;SDS011;4255;48.730;9.156;2023-01-16T08:08:27;3.53;;;3.23;;
8435;SDS011;4255;48.730;9.156;2023-01-16T08:10:57;3.15;;;2.92;;
8435;SDS011;4255;48.730;9.156;2023-01-16T08:13:24;3.00;;;2.67;;
8435;SDS011;4255;48.730;9.156;2023-01-16T08:15:50;6.40;;;2.65;;
8435;SDS011;4255;48.730;9.156;2023-01-16T08:18:16;3.10;;;2.90;;
8435;SDS011;4255;48.730;9.156;2023-01-16T08:20:43;4.78;;;3.53;;
8435;SDS011;4255;48.730;9.156;2023-01-16T08:23:10;2.92;;;2.83;;
8435;SDS011;4255;48.730;9.156;2023-01-16T08:25:36;5.25;;;2.78;;
8435;SDS011;4255;48.730;9.156;2023-01-16T08:28:01;5.87;;;2.80;;
8435;SDS011;4255;48.730;9.156;2023-01-16T08:30:27;2.30;;;2.20;;
8435;SDS011;4255;48.730;9.156;2023-01-16T08:32:59;2.40;;;2.20;;
8435;SDS011;4255;48.730;9.156;2023-01-16T08:35:26;3.53;;;2.50;;
8435;SDS011;4255;48.730;9.156;2023-01-16T08:37:52;4.85;;;3.67;;
8435;SDS011;4255;48.730;9.156;2023-01-16T08:40:18;2.40;;;2.20;;
8435;SDS011;4255;48.730;9.156;2023-01-16T08:42:44;2.23;;;2.13;;
8435;SDS011;4255;48.730;9.156;2023-01-16T08:45:28;2.88;;;2.58;;
8435;SDS011;4255;48.730;9.156;2023-01-16T08:48:14;2.20;;;2.10;;
8435;SDS011;4255;48.730;9.156;2023-01-16T08:51:06;1.95;;;1.85;;
8435;SDS011;4255;48.730;9.156;2023-01-16T08:53:47;2.35;;;2.20;;
8435;SDS011;4255;48.730;9.156;2023-01-16T08:56:13;2.00;;;1.90;;
8435;SDS011;4255;48.730;9.156;2023-01-16T08:58:38;2.57;;;2.43;;
8435;SDS011;4255;48.730;9.156;2023-01-16T09:01:04;2.47;;;2.37;;
8435;SDS011;4255;48.730;9.156;2023-01-16T09:03:30;1.93;;;1.83;;
8435;SDS011;4255;48.730;9.156;2023-01-16T09:05:55;2.90;;;2.30;;
8435;SDS011;4255;48.730;9.156;2023-01-16T09:08:21;2.50;;;2.40;;
8435;SDS011;4255;48.730;9.156;2023-01-16T09:10:47;2.33;;;2.23;;
8435;SDS011;4255;48.730;9.156;2023-01-16T09:13:31;3.20;;;2.15;;
8435;SDS011;4255;48.730;9.156;2023-01-16T09:16:24;2.17;;;1.98;;
8435;SDS011;4255;48.730;9.156;2023-01-16T09:18:50;2.85;;;2.25;;
8435;SDS011;4255;48.730;9.156;2023-01-16T09:21:16;2.65;;;2.45;;
8435;SDS011;4255;48.730;9.156;2023-01-16T09:23:48;2.42;;;2.33;;
8435;SDS011;4255;48.730;9.156;2023-01-16T09:26:15;2.58;;;1.60;;
8435;SDS011;4255;48.730;9.156;2023-01-16T09:28:41;2.23;;;2.13;;
8435;SDS011;4255;48.730;9.156;2023-01-16T09:31:07;2.30;;;1.90;;
8435;SDS011;4255;48.730;9.156;2023-01-16T09:33:32;3.17;;;2.27;;
8435;SDS011;4255;48.730;9.156;2023-01-16T09:35:58;2.20;;;2.10;;
8435;SDS011;4255;48.730;9.156;2023-01-16T09:38:23;2.07;;;1.97;;
8435;SDS011;4255;48.730;9.156;2023-01-16T09:40:53;3.57;;;2.23;;
8435;SDS011;4255;48.730;9.156;2023-01-16T09:43:38;1.75;;;1.65;;
8435;SDS011;4255;48.730;9.156;2023-01-16T09:46:09;2.20;;;2.00;;
8435;SDS011;4255;48.730;9.156;2023-01-16T09:48:40;2.65;;;2.45;;
8435;SDS011;4255;48.730;9.156;2023-01-16T09:51:21;1.90;;;1.80;;
8435;SDS011;4255;48.730;9.156;2023-01-16T09:56:49;3.17;;;1.40;;
8435;SDS011;4255;48.730;9.156;2023-01-16T09:59:40;1.83;;;1.73;;
8435;SDS011;4255;48.730;9.156;2023-01-16T10:02:27;2.47;;;2.10;;
8435;SDS011;4255;48.730;9.156;2023-01-16T10:04:58;1.67;;;1.65;;
8435;SDS011;4255;48.730;9.156;2023-01-16T10:12:38;3.65;;;2.38;;
8435;SDS011;4255;48.730;9.156;2023-01-16T10:18:16;1.77;;;1.45;;
8435;SDS011;4255;48.730;9.156;2023-01-16T10:21:01;1.80;;;1.70;;
8435;SDS011;4255;48.730;9.156;2023-01-16T10:26:28;2.00;;;1.90;;
8435;SDS011;4255;48.730;9.156;2023-01-16T10:29:20;1.40;;;1.30;;
8435;SDS011;4255;48.730;9.156;2023-01-16T10:34:33;1.38;;;1.27;;
8435;SDS011;4255;48.730;9.156;2023-01-16T10:37:04;2.47;;;2.28;;
8435;SDS011;4255;48.730;9.156;2023-01-16T10:39:32;1.30;;;1.30;;
8435;SDS011;4255;48.730;9.156;2023-01-16T10:42:08;1.45;;;1.35;;
8435;SDS011;4255;48.730;9.156;2023-01-16T10:45:23;1.75;;;1.65;;
8435;SDS011;4255;48.730;9.156;2023-01-16T10:48:14;3.22;;;2.42;;
8435;SDS011;4255;48.730;9.156;2023-01-16T10:51:00;1.27;;;1.20;;
8435;SDS011;4255;48.730;9.156;2023-01-16T10:53:27;1.40;;;1.30;;
8435;SDS011;4255;48.730;9.156;2023-01-16T10:55:54;5.05;;;1.42;;
8435;SDS011;4255;48.730;9.156;2023-01-16T10:58:22;2.28;;;1.50;;
8435;SDS011;4255;48.730;9.156;2023-01-16T11:03:33;1.60;;;1.50;;
8435;SDS011;4255;48.730;9.156;2023-01-16T11:11:24;2.40;;;2.13;;
8435;SDS011;4255;48.730;9.156;2023-01-16T11:20:11;1.90;;;1.80;;
8435;SDS011;4255;48.730;9.156;2023-01-16T11:22:41;1.48;;;1.40;;
8435;SDS011;4255;48.730;9.156;2023-01-16T11:25:13;1.50;;;1.50;;
8435;SDS011;4255;48.730;9.156;2023-01-16T11:27:45;1.42;;;1.42;;
8435;SDS011;4255;48.730;9.156;2023-01-16T11:30:18;1.40;;;1.30;;
8435;SDS011;4255;48.730;9.156;2023-01-16T11:32:47;1.35;;;1.35;;
8435;SDS011;4255;48.730;9.156;2023-01-16T11:35:14;1.30;;;1.30;;
8435;SDS011;4255;48.730;9.156;2023-01-16T11:37:42;1.67;;;1.40;;
8435;SDS011;4255;48.730;9.156;2023-01-16T11:40:29;1.60;;;1.50;;
8435;SDS011;4255;48.730;9.156;2023-01-16T11:42:58;1.40;;;1.30;;
8435;SDS011;4255;48.730;9.156;2023-01-16T11:45:49;1.58;;;1.48;;
8435;SDS011;4255;48.730;9.156;2023-01-16T11:48:27;1.35;;;1.25;;
8435;SDS011;4255;48.730;9.156;2023-01-16T11:50:58;1.42;;;1.42;;
8435;SDS011;4255;48.730;9.156;2023-01-16T11:53:31;1.20;;;1.20;;
8435;SDS011;4255;48.730;9.156;2023-01-16T12:15:07;1.27;;;1.27;;
8435;SDS011;4255;48.730;9.156;2023-01-16T12:25:35;1.27;;;1.10;;
8435;SDS011;4255;48.730;9.156;2023-01-16T12:39:43;1.35;;;1.35;;
8435;SDS011;4255;48.730;9.156;2023-01-16T12:45:20;1.30;;;1.30;;
8435;SDS011;4255;48.730;9.156;2023-01-16T12:58:22;1.20;;;1.10;;
8435;SDS011;4255;48.730;9.156;2023-01-16T13:09:38;1.05;;;1.02;;
8435;SDS011;4255;48.730;9.156;2023-01-16T13:12:46;1.00;;;1.00;;
8435;SDS011;4255;48.730;9.156;2023-01-16T13:15:36;1.10;;;1.00;;
8435;SDS011;4255;48.730;9.156;2023-01-16T13:18:06;1.27;;;1.17;;
8435;SDS011;4255;48.730;9.156;2023-01-16T13:20:41;1.20;;;1.10;;
8435;SDS011;4255;48.730;9.156;2023-01-16T13:23:44;1.20;;;1.10;;
8435;SDS011;4255;48.730;9.156;2023-01-16T13:26:19;1.10;;;1.10;;
8435;SDS011;4255;48.730;9.156;2023-01-16T13:28:59;3.60;;;1.10;;
8435;SDS011;4255;48.730;9.156;2023-01-16T13:31:30;1.30;;;1.20;;
8435;SDS011;4255;48.730;9.156;2023-01-16T13:34:05;2.95;;;1.08;;
8435;SDS011;4255;48.730;9.156;2023-01-16T13:42:30;1.20;;;1.20;;
8435;SDS011;4255;48.730;9.156;2023-01-16T13:44:59;1.25;;;1.15;;
8435;SDS011;4255;48.730;9.156;2023-01-16T13:47:49;2.38;;;1.20;;
8435;SDS011;4255;48.730;9.156;2023-01-16T13:52:49;1.40;;;1.30;;
8435;SDS011;4255;48.730;9.156;2023-01-16T13:57:50;0.90;;;0.90;;
8435;SDS011;4255;48.730;9.156;2023-01-16T14:00:19;1.25;;;1.10;;
8435;SDS011;4255;48.730;9.156;2023-01-16T14:02:45;1.27;;;1.17;;
8435;SDS011;4255;48.730;9.156;2023-01-16T14:05:49;1.30;;;1.20;;
8435;SDS011;4255;48.730;9.156;2023-01-16T14:11:38;5.90;;;2.33;;
8435;SDS011;4255;48.730;9.156;2023-01-16T14:17:20;1.55;;;1.45;;
8435;SDS011;4255;48.730;9.156;2023-01-16T14:22:36;1.20;;;1.10;;
8435;SDS011;4255;48.730;9.156;2023-01-16T14:25:27;1.05;;;1.05;;
8435;SDS011;4255;48.730;9.156;2023-01-16T14:27:53;2.03;;;1.20;;
8435;SDS011;4255;48.730;9.156;2023-01-16T14:30:22;1.08;;;1.08;;
8435;SDS011;4255;48.730;9.156;2023-01-16T14:32:52;1.83;;;1.67;;
8435;SDS011;4255;48.730;9.156;2023-01-16T14:35:28;0.80;;;0.80;;
8435;SDS011;4255;48.730;9.156;2023-01-16T14:38:06;2.75;;;1.13;;
8435;SDS011;4255;48.730;9.156;2023-01-16T14:40:38;1.00;;;1.00;;
8435;SDS011;4255;48.730;9.156;2023-01-16T14:43:32;1.10;;;1.10;;
8435;SDS011;4255;48.730;9.156;2023-01-16T14:55:33;1.10;;;1.10;;
8435;SDS011;4255;48.730;9.156;2023-01-16T14:58:30;1.48;;;1.38;;
8435;SDS011;4255;48.730;9.156;2023-01-16T15:01:28;1.30;;;1.20;;
8435;SDS011;4255;48.730;9.156;2023-01-16T15:04:15;1.20;;;1.20;;
8435;SDS011;4255;48.730;9.156;2023-01-16T15:06:48;1.20;;;1.20;;
8435;SDS011;4255;48.730;9.156;2023-01-16T15:09:18;0.93;;;0.93;;
8435;SDS011;4255;48.730;9.156;2023-01-16T15:11:47;1.13;;;1.02;;
8435;SDS011;4255;48.730;9.156;2023-01-16T15:14:25;1.20;;;1.10;;
8435;SDS011;4255;48.730;9.156;2023-01-16T15:16:51;1.40;;;1.40;;
8435;SDS011;4255;48.730;9.156;2023-01-16T15:22:53;1.88;;;1.25;;
8435;SDS011;4255;48.730;9.156;2023-01-16T15:28:08;1.17;;;1.10;;
8435;SDS011;4255;48.730;9.156;2023-01-16T15:30:41;1.38;;;1.27;;
8435;SDS011;4255;48.730;9.156;2023-01-16T15:33:21;1.10;;;1.10;;
8435;SDS011;4255;48.730;9.156;2023-01-16T15:38:49;1.58;;;1.48;;
8435;SDS011;4255;48.730;9.156;2023-01-16T15:41:20;2.17;;;1.35;;
8435;SDS011;4255;48.730;9.156;2023-01-16T15:44:11;1.23;;;1.13;;
8435;SDS011;4255;48.730;9.156;2023-01-16T15:47:04;1.88;;;1.67;;
8435;SDS011;4255;48.730;9.156;2023-01-16T15:49:46;1.73;;;1.30;;
8435;SDS011;4255;48.730;9.156;2023-01-16T15:52:35;1.70;;;1.60;;
8435;SDS011;4255;48.730;9.156;2023-01-16T15:57:54;2.17;;;1.40;;
8435;SDS011;4255;48.730;9.156;2023-01-16T16:02:50;1.23;;;1.23;;
8435;SDS011;4255;48.730;9.156;2023-01-16T16:05:21;1.67;;;1.58;;
8435;SDS011;4255;48.730;9.156;2023-01-16T16:07:49;1.60;;;1.50;;
8435;SDS011;4255;48.730;9.156;2023-01-16T16:10:15;1.80;;;1.70;;
8435;SDS011;4255;48.730;9.156;2023-01-16T16:13:03;1.52;;;1.42;;
8435;SDS011;4255;48.730;9.156;2023-01-16T16:15:31;1.80;;;1.70;;
8435;SDS011;4255;48.730;9.156;2023-01-16T16:18:16;1.60;;;1.50;;
8435;SDS011;4255;48.730;9.156;2023-01-16T16:20:48;1.40;;;1.40;;
8435;SDS011;4255;48.730;9.156;2023-01-16T16:23:17;1.55;;;1.48;;
8435;SDS011;4255;48.730;9.156;2023-01-16T16:28:20;1.75;;;1.60;;
8435;SDS011;4255;48.730;9.156;2023-01-16T16:30:57;1.60;;;1.50;;
8435;SDS011;4255;48.730;9.156;2023-01-16T16:33:26;1.30;;;1.20;;
8435;SDS011;4255;48.730;9.156;2023-01-16T16:35:55;1.90;;;1.80;;
8435;SDS011;4255;48.730;9.156;2023-01-16T16:38:30;1.40;;;1.40;;
8435;SDS011;4255;48.730;9.156;2023-01-16T16:44:21;1.90;;;1.80;;
8435;SDS011;4255;48.730;9.156;2023-01-16T16:46:49;2.50;;;2.40;;
8435;SDS011;4255;48.730;9.156;2023-01-16T16:51:49;1.90;;;1.80;;
8435;SDS011;4255;48.730;9.156;2023-01-16T16:54:16;4.00;;;3.60;;
8435;SDS011;4255;48.730;9.156;2023-01-16T16:56:52;3.05;;;2.83;;
8435;SDS011;4255;48.730;9.156;2023-01-16T16:59:24;2.53;;;2.33;;
8435;SDS011;4255;48.730;9.156;2023-01-16T17:01:53;2.38;;;2.28;;
8435;SDS011;4255;48.730;9.156;2023-01-16T17:04:21;2.28;;;2.08;;
8435;SDS011;4255;48.730;9.156;2023-01-16T17:06:47;1.83;;;1.73;;
8435;SDS011;4255;48.730;9.156;2023-01-16T17:09:15;2.05;;;1.92;;
8435;SDS011;4255;48.730;9.156;2023-01-16T17:11:45;2.05;;;1.95;;
8435;SDS011;4255;48.730;9.156;2023-01-16T17:14:11;2.25;;;2.10;;
8435;SDS011;4255;48.730;9.156;2023-01-16T17:16:37;1.80;;;1.70;;
8435;SDS011;4255;48.730;9.156;2023-01-16T17:19:14;2.00;;;1.90;;
8435;SDS011;4255;48.730;9.156;2023-01-16T17:21:46;1.70;;;1.70;;
8435;SDS011;4255;48.730;9.156;2023-01-16T17:24:16;2.10;;;2.00;;
8435;SDS011;4255;48.730;9.156;2023-01-16T17:26:43;2.25;;;2.15;;
8435;SDS011;4255;48.730;9.156;2023-01-16T17:29:09;2.23;;;2.13;;
8435;SDS011;4255;48.730;9.156;2023-01-16T17:31:34;2.43;;;2.30;;
8435;SDS011;4255;48.730;9.156;2023-01-16T17:34:02;2.25;;;2.15;;
8435;SDS011;4255;48.730;9.156;2023-01-16T17:36:28;2.70;;;2.60;;
8435;SDS011;4255;48.730;9.156;2023-01-16T17:38:53;2.53;;;2.33;;
8435;SDS011;4255;48.730;9.156;2023-01-16T17:41:23;2.93;;;2.20;;
8435;SDS011;4255;48.730;9.156;2023-01-16T17:43:56;2.00;;;1.90;;
8435;SDS011;4255;48.730;9.156;2023-01-16T17:46:40;2.75;;;2.55;;
8435;SDS011;4255;48.730;9.156;2023-01-16T17:49:06;3.23;;;3.03;;
8435;SDS011;4255;48.730;9.156;2023-01-16T17:51:32;3.20;;;2.90;;
8435;SDS011;4255;48.730;9.156;2023-01-16T17:53:58;5.18;;;2.25;;
8435;SDS011;4255;48.730;9.156;2023-01-16T17:56:24;2.37;;;2.27;;
8435;SDS011;4255;48.730;9.156;2023-01-16T17:58:50;2.43;;;2.33;;
8435;SDS011;4255;48.730;9.156;2023-01-16T18:01:29;2.67;;;2.47;;
8435;SDS011;4255;48.730;9.156;2023-01-16T18:03:59;2.70;;;2.50;;
8435;SDS011;4255;48.730;9.156;2023-01-16T18:06:37;2.92;;;2.67;;
8435;SDS011;4255;48.730;9.156;2023-01-16T18:09:05;2.70;;;2.60;;
8435;SDS011;4255;48.730;9.156;2023-01-16T18:11:37;2.83;;;1.95;;
8435;SDS011;4255;48.730;9.156;2023-01-16T18:14:22;2.60;;;2.50;;
8435;SDS011;4255;48.730;9.156;2023-01-16T18:17:10;3.47;;;2.20;;
8435;SDS011;4255;48.730;9.156;2023-01-16T18:19:46;2.00;;;1.90;;
8435;SDS011;4255;48.730;9.156;2023-01-16T18:22:12;1.65;;;1.65;;
8435;SDS011;4255;48.730;9.156;2023-01-16T18:24:39;1.92;;;1.83;;
8435;SDS011;4255;48.730;9.156;2023-01-16T18:27:07;1.90;;;1.80;;
8435;SDS011;4255;48.730;9.156;2023-01-16T18:29:33;1.60;;;1.50;;
8435;SDS011;4255;48.730;9.156;2023-01-16T18:32:00;2.33;;;2.22;;
8435;SDS011;4255;48.730;9.156;2023-01-16T18:34:44;3.95;;;1.73;;
8435;SDS011;4255;48.730;9.156;2023-01-16T18:37:19;1.90;;;1.80;;
8435;SDS011;4255;48.730;9.156;2023-01-16T18:39:48;2.15;;;2.05;;
8435;SDS011;4255;48.730;9.156;2023-01-16T18:42:33;2.17;;;2.08;;